Skip Navigation LinksHome page > Weather > Current weather Skip Navigation Links

Current Weather

Eastern Wv Regional/Shepherd, Martinsburg, W.V.

For information only: do not use for flight planning or navigation.
Latest weather
Observation time Tuesday, January 26, 2021 4:20 PM EST
Local time Tuesday, January 26, 2021 4:48 PM EST
Flight conditions Low Instrument Meteorological Conditions
Winds
Wind direction Northeast (40°)
Wind speed 7 mph
Visibility 1.75 mi.
Present weather mist
Sky condition
Ceiling 300 ft. overcast
Cloud layer overcast 300 ft.
Temperature 34°F
Dewpoint 33°F
Altimeter 29.81 in.Hg
Derived measurements
Relative humidity 96%
Wind chill 28°F
Density altitude -913 ft.
Remarks
Automated weather observing station with precipitation discriminator.
METAR KMRB 262120Z 04006KT 1 3/4SM BR OVC003 01/01 A2981 RMK AO2 T00110006

Settings

Location code

InnerDrive.Weather 4.0.6770.0 Release CLR 4.0.30319.42000
Copyright ©2018 Inner Drive Technology. All rights reserved. Portions Copyright ©1986-2018 David Braverman.

Find weather

Site navigation


Skip Navigation Links

Place info

Page info

PayPal - The safer, easier way to pay online!

Return home.

Copyright ©2021 Inner Drive Technology. Purveyors of fine, hand-crafted computer software. Page printed 2021-01-26T21:48:38 UTC.